sensor_id;sensor_type;location;lat;lon;timestamp;temperature;humidity
26164;DHT22;13914;48.178;11.716;2024-01-30T00:01:31;1.80;15.40
26164;DHT22;13914;48.178;11.716;2024-01-30T00:03:57;1.80;15.30
26164;DHT22;13914;48.178;11.716;2024-01-30T00:06:23;1.70;15.40
26164;DHT22;13914;48.178;11.716;2024-01-30T00:08:50;1.70;15.30
26164;DHT22;13914;48.178;11.716;2024-01-30T00:11:16;1.70;15.40
26164;DHT22;13914;48.178;11.716;2024-01-30T00:13:42;1.70;15.40
26164;DHT22;13914;48.178;11.716;2024-01-30T00:16:07;1.60;15.40
26164;DHT22;13914;48.178;11.716;2024-01-30T00:18:34;1.60;15.40
26164;DHT22;13914;48.178;11.716;2024-01-30T00:21:00;1.60;15.40
26164;DHT22;13914;48.178;11.716;2024-01-30T00:23:25;1.60;15.40
26164;DHT22;13914;48.178;11.716;2024-01-30T00:25:51;1.60;15.40
26164;DHT22;13914;48.178;11.716;2024-01-30T00:28:17;1.50;15.40
26164;DHT22;13914;48.178;11.716;2024-01-30T00:30:42;1.50;15.40
26164;DHT22;13914;48.178;11.716;2024-01-30T00:33:09;1.50;15.40
26164;DHT22;13914;48.178;11.716;2024-01-30T00:35:34;1.50;15.50
26164;DHT22;13914;48.178;11.716;2024-01-30T00:38:00;1.50;15.50
26164;DHT22;13914;48.178;11.716;2024-01-30T00:40:26;1.40;15.40
26164;DHT22;13914;48.178;11.716;2024-01-30T00:42:51;1.40;15.40
26164;DHT22;13914;48.178;11.716;2024-01-30T00:45:17;1.40;15.50
26164;DHT22;13914;48.178;11.716;2024-01-30T00:47:43;1.40;15.50
26164;DHT22;13914;48.178;11.716;2024-01-30T00:50:09;1.30;15.40
26164;DHT22;13914;48.178;11.716;2024-01-30T00:52:35;1.30;15.50
26164;DHT22;13914;48.178;11.716;2024-01-30T00:55:01;1.30;15.50
26164;DHT22;13914;48.178;11.716;2024-01-30T00:57:26;1.30;15.50
26164;DHT22;13914;48.178;11.716;2024-01-30T00:59:52;1.30;15.50
26164;DHT22;13914;48.178;11.716;2024-01-30T01:02:18;1.30;15.50
26164;DHT22;13914;48.178;11.716;2024-01-30T01:04:44;1.20;15.50
26164;DHT22;13914;48.178;11.716;2024-01-30T01:07:10;1.20;15.50
26164;DHT22;13914;48.178;11.716;2024-01-30T01:09:36;1.20;15.50
26164;DHT22;13914;48.178;11.716;2024-01-30T01:12:02;1.20;15.60
26164;DHT22;13914;48.178;11.716;2024-01-30T01:14:28;1.20;15.60
26164;DHT22;13914;48.178;11.716;2024-01-30T01:16:54;1.10;15.60
26164;DHT22;13914;48.178;11.716;2024-01-30T01:19:20;1.10;15.60
26164;DHT22;13914;48.178;11.716;2024-01-30T01:21:45;1.10;15.60
26164;DHT22;13914;48.178;11.716;2024-01-30T01:24:12;1.10;15.60
26164;DHT22;13914;48.178;11.716;2024-01-30T01:26:38;1.10;15.60
26164;DHT22;13914;48.178;11.716;2024-01-30T01:29:04;1.10;15.60
26164;DHT22;13914;48.178;11.716;2024-01-30T01:31:38;1.00;15.60
26164;DHT22;13914;48.178;11.716;2024-01-30T01:34:11;1.00;15.60
26164;DHT22;13914;48.178;11.716;2024-01-30T01:36:37;1.00;15.60
26164;DHT22;13914;48.178;11.716;2024-01-30T01:39:02;1.00;15.60
26164;DHT22;13914;48.178;11.716;2024-01-30T01:41:31;1.00;15.60
26164;DHT22;13914;48.178;11.716;2024-01-30T01:43:58;0.90;15.60
26164;DHT22;13914;48.178;11.716;2024-01-30T01:46:26;0.90;15.60
26164;DHT22;13914;48.178;11.716;2024-01-30T01:48:53;0.90;15.60
26164;DHT22;13914;48.178;11.716;2024-01-30T01:51:19;0.90;15.60
26164;DHT22;13914;48.178;11.716;2024-01-30T01:53:45;0.90;15.70
26164;DHT22;13914;48.178;11.716;2024-01-30T01:56:10;0.80;15.70
26164;DHT22;13914;48.178;11.716;2024-01-30T01:58:36;0.80;15.60
26164;DHT22;13914;48.178;11.716;2024-01-30T02:01:02;0.80;15.60
26164;DHT22;13914;48.178;11.716;2024-01-30T02:03:29;0.80;15.70
26164;DHT22;13914;48.178;11.716;2024-01-30T02:05:55;0.80;15.60
26164;DHT22;13914;48.178;11.716;2024-01-30T02:08:22;0.80;15.70
26164;DHT22;13914;48.178;11.716;2024-01-30T02:10:48;0.80;15.60
26164;DHT22;13914;48.178;11.716;2024-01-30T02:13:14;0.70;15.60
26164;DHT22;13914;48.178;11.716;2024-01-30T02:15:39;0.70;15.60
26164;DHT22;13914;48.178;11.716;2024-01-30T02:18:05;0.70;15.60
26164;DHT22;13914;48.178;11.716;2024-01-30T02:20:31;0.70;15.60
26164;DHT22;13914;48.178;11.716;2024-01-30T02:22:57;0.70;15.60
26164;DHT22;13914;48.178;11.716;2024-01-30T02:25:35;0.60;15.60
26164;DHT22;13914;48.178;11.716;2024-01-30T02:28:10;0.60;15.60
26164;DHT22;13914;48.178;11.716;2024-01-30T02:30:37;0.60;15.60
26164;DHT22;13914;48.178;11.716;2024-01-30T02:33:03;0.60;15.60
26164;DHT22;13914;48.178;11.716;2024-01-30T02:35:28;0.60;15.60
26164;DHT22;13914;48.178;11.716;2024-01-30T02:37:59;0.60;15.60
26164;DHT22;13914;48.178;11.716;2024-01-30T02:40:25;0.50;15.60
26164;DHT22;13914;48.178;11.716;2024-01-30T02:42:50;0.50;15.60
26164;DHT22;13914;48.178;11.716;2024-01-30T02:45:16;0.50;15.60
26164;DHT22;13914;48.178;11.716;2024-01-30T02:47:42;0.50;15.60
26164;DHT22;13914;48.178;11.716;2024-01-30T02:50:08;0.50;15.60
26164;DHT22;13914;48.178;11.716;2024-01-30T02:52:34;0.40;15.60
26164;DHT22;13914;48.178;11.716;2024-01-30T02:55:00;0.50;15.60
26164;DHT22;13914;48.178;11.716;2024-01-30T02:57:25;0.40;15.50
26164;DHT22;13914;48.178;11.716;2024-01-30T02:59:51;0.40;15.60
26164;DHT22;13914;48.178;11.716;2024-01-30T03:02:17;0.40;15.60
26164;DHT22;13914;48.178;11.716;2024-01-30T03:04:42;0.40;15.60
26164;DHT22;13914;48.178;11.716;2024-01-30T03:07:08;0.40;15.70
26164;DHT22;13914;48.178;11.716;2024-01-30T03:09:34;0.40;15.60
26164;DHT22;13914;48.178;11.716;2024-01-30T03:12:00;0.30;15.60
26164;DHT22;13914;48.178;11.716;2024-01-30T03:14:26;0.30;15.60
26164;DHT22;13914;48.178;11.716;2024-01-30T03:16:52;0.30;15.50
26164;DHT22;13914;48.178;11.716;2024-01-30T03:19:17;0.30;15.60
26164;DHT22;13914;48.178;11.716;2024-01-30T03:21:44;0.30;15.60
26164;DHT22;13914;48.178;11.716;2024-01-30T03:24:09;0.30;15.60
26164;DHT22;13914;48.178;11.716;2024-01-30T03:26:35;0.30;15.60
26164;DHT22;13914;48.178;11.716;2024-01-30T03:29:01;0.20;15.60
26164;DHT22;13914;48.178;11.716;2024-01-30T03:31:27;0.20;15.60
26164;DHT22;13914;48.178;11.716;2024-01-30T03:33:52;0.20;15.60
26164;DHT22;13914;48.178;11.716;2024-01-30T03:36:18;0.20;15.60
26164;DHT22;13914;48.178;11.716;2024-01-30T03:38:45;0.20;15.60
26164;DHT22;13914;48.178;11.716;2024-01-30T03:41:10;0.20;15.60
26164;DHT22;13914;48.178;11.716;2024-01-30T03:43:36;0.20;15.60
26164;DHT22;13914;48.178;11.716;2024-01-30T03:46:02;0.20;15.60
26164;DHT22;13914;48.178;11.716;2024-01-30T03:48:28;0.20;15.60
26164;DHT22;13914;48.178;11.716;2024-01-30T03:50:54;0.10;15.60
26164;DHT22;13914;48.178;11.716;2024-01-30T03:53:19;0.10;15.50
26164;DHT22;13914;48.178;11.716;2024-01-30T03:55:45;0.10;15.60
26164;DHT22;13914;48.178;11.716;2024-01-30T03:58:11;0.10;15.60
26164;DHT22;13914;48.178;11.716;2024-01-30T04:00:36;0.10;15.60
26164;DHT22;13914;48.178;11.716;2024-01-30T04:03:02;0.10;15.60
26164;DHT22;13914;48.178;11.716;2024-01-30T04:05:28;0.10;15.60
26164;DHT22;13914;48.178;11.716;2024-01-30T04:07:54;0.10;15.60
26164;DHT22;13914;48.178;11.716;2024-01-30T04:10:19;0.10;15.60
26164;DHT22;13914;48.178;11.716;2024-01-30T04:12:45;0.00;15.60
26164;DHT22;13914;48.178;11.716;2024-01-30T04:15:11;0.00;15.60
26164;DHT22;13914;48.178;11.716;2024-01-30T04:17:37;0.00;15.60
26164;DHT22;13914;48.178;11.716;2024-01-30T04:20:02;0.00;15.60
26164;DHT22;13914;48.178;11.716;2024-01-30T04:22:28;0.00;15.60
26164;DHT22;13914;48.178;11.716;2024-01-30T04:24:54;0.00;15.60
26164;DHT22;13914;48.178;11.716;2024-01-30T04:27:20;0.00;15.60
26164;DHT22;13914;48.178;11.716;2024-01-30T04:29:45;0.00;15.60
26164;DHT22;13914;48.178;11.716;2024-01-30T04:32:11;0.00;15.60
26164;DHT22;13914;48.178;11.716;2024-01-30T04:34:37;-0.10;15.60
26164;DHT22;13914;48.178;11.716;2024-01-30T04:37:02;-0.10;15.60
26164;DHT22;13914;48.178;11.716;2024-01-30T04:39:28;-0.10;15.60
26164;DHT22;13914;48.178;11.716;2024-01-30T04:41:54;-0.10;15.60
26164;DHT22;13914;48.178;11.716;2024-01-30T04:44:19;-0.10;15.60
26164;DHT22;13914;48.178;11.716;2024-01-30T04:46:45;-0.10;15.70
26164;DHT22;13914;48.178;11.716;2024-01-30T04:49:11;-0.10;15.60
26164;DHT22;13914;48.178;11.716;2024-01-30T04:51:36;-0.10;15.60
26164;DHT22;13914;48.178;11.716;2024-01-30T04:54:02;-0.20;15.60
26164;DHT22;13914;48.178;11.716;2024-01-30T04:56:28;-0.10;15.70
26164;DHT22;13914;48.178;11.716;2024-01-30T04:58:54;-0.20;15.60
26164;DHT22;13914;48.178;11.716;2024-01-30T05:01:19;-0.20;15.60
26164;DHT22;13914;48.178;11.716;2024-01-30T05:03:45;-0.20;15.60
26164;DHT22;13914;48.178;11.716;2024-01-30T05:06:11;-0.20;15.60
26164;DHT22;13914;48.178;11.716;2024-01-30T05:08:36;-0.20;15.60
26164;DHT22;13914;48.178;11.716;2024-01-30T05:11:02;-0.20;15.60
26164;DHT22;13914;48.178;11.716;2024-01-30T05:13:30;-0.20;15.60
26164;DHT22;13914;48.178;11.716;2024-01-30T05:15:56;-0.20;15.60
26164;DHT22;13914;48.178;11.716;2024-01-30T05:18:22;-0.30;15.60
26164;DHT22;13914;48.178;11.716;2024-01-30T05:20:51;-0.30;15.60
26164;DHT22;13914;48.178;11.716;2024-01-30T05:23:17;-0.30;15.60
26164;DHT22;13914;48.178;11.716;2024-01-30T05:25:42;-0.30;15.60
26164;DHT22;13914;48.178;11.716;2024-01-30T05:28:08;-0.30;15.60
26164;DHT22;13914;48.178;11.716;2024-01-30T05:30:34;-0.30;15.50
26164;DHT22;13914;48.178;11.716;2024-01-30T05:32:59;-0.30;15.60
26164;DHT22;13914;48.178;11.716;2024-01-30T05:35:25;-0.30;15.60
26164;DHT22;13914;48.178;11.716;2024-01-30T05:37:51;-0.40;15.70
26164;DHT22;13914;48.178;11.716;2024-01-30T05:40:16;-0.40;15.70
26164;DHT22;13914;48.178;11.716;2024-01-30T05:42:42;-0.40;15.60
26164;DHT22;13914;48.178;11.716;2024-01-30T05:45:08;-0.40;15.60
26164;DHT22;13914;48.178;11.716;2024-01-30T05:47:34;-0.40;15.60
26164;DHT22;13914;48.178;11.716;2024-01-30T05:50:00;-0.40;15.60
26164;DHT22;13914;48.178;11.716;2024-01-30T05:52:25;-0.40;15.60
26164;DHT22;13914;48.178;11.716;2024-01-30T05:54:51;-0.40;15.60
26164;DHT22;13914;48.178;11.716;2024-01-30T05:57:17;-0.50;15.60
26164;DHT22;13914;48.178;11.716;2024-01-30T05:59:43;-0.40;15.60
26164;DHT22;13914;48.178;11.716;2024-01-30T06:02:10;-0.50;15.60
26164;DHT22;13914;48.178;11.716;2024-01-30T06:04:36;-0.50;15.60
26164;DHT22;13914;48.178;11.716;2024-01-30T06:07:02;-0.50;15.60
26164;DHT22;13914;48.178;11.716;2024-01-30T06:09:28;-0.50;15.70
26164;DHT22;13914;48.178;11.716;2024-01-30T06:11:54;-0.50;15.70
26164;DHT22;13914;48.178;11.716;2024-01-30T06:14:20;-0.50;15.70
26164;DHT22;13914;48.178;11.716;2024-01-30T06:16:46;-0.50;15.70
26164;DHT22;13914;48.178;11.716;2024-01-30T06:19:11;-0.50;15.70
26164;DHT22;13914;48.178;11.716;2024-01-30T06:21:37;-0.50;15.70
26164;DHT22;13914;48.178;11.716;2024-01-30T06:24:04;-0.60;15.60
26164;DHT22;13914;48.178;11.716;2024-01-30T06:26:30;-0.60;15.60
26164;DHT22;13914;48.178;11.716;2024-01-30T06:28:55;-0.60;15.60
26164;DHT22;13914;48.178;11.716;2024-01-30T06:31:21;-0.60;15.60
26164;DHT22;13914;48.178;11.716;2024-01-30T06:33:47;-0.60;15.70
26164;DHT22;13914;48.178;11.716;2024-01-30T06:36:13;-0.60;15.70
26164;DHT22;13914;48.178;11.716;2024-01-30T06:38:39;-0.60;15.70
26164;DHT22;13914;48.178;11.716;2024-01-30T06:41:05;-0.60;15.70
26164;DHT22;13914;48.178;11.716;2024-01-30T06:43:30;-0.60;15.70
26164;DHT22;13914;48.178;11.716;2024-01-30T06:45:56;-0.60;15.70
26164;DHT22;13914;48.178;11.716;2024-01-30T06:48:22;-0.60;15.60
26164;DHT22;13914;48.178;11.716;2024-01-30T06:50:47;-0.60;15.60
26164;DHT22;13914;48.178;11.716;2024-01-30T06:53:14;-0.70;15.60
26164;DHT22;13914;48.178;11.716;2024-01-30T06:55:40;-0.70;15.60
26164;DHT22;13914;48.178;11.716;2024-01-30T06:58:06;-0.70;15.70
26164;DHT22;13914;48.178;11.716;2024-01-30T07:00:32;-0.70;15.70
26164;DHT22;13914;48.178;11.716;2024-01-30T07:02:57;-0.70;15.70
26164;DHT22;13914;48.178;11.716;2024-01-30T07:05:24;-0.70;15.70
26164;DHT22;13914;48.178;11.716;2024-01-30T07:07:49;-0.70;15.70
26164;DHT22;13914;48.178;11.716;2024-01-30T07:10:15;-0.70;15.70
26164;DHT22;13914;48.178;11.716;2024-01-30T07:12:41;-0.70;15.70
26164;DHT22;13914;48.178;11.716;2024-01-30T07:15:06;-0.70;15.70
26164;DHT22;13914;48.178;11.716;2024-01-30T07:17:35;-0.70;15.70
26164;DHT22;13914;48.178;11.716;2024-01-30T07:20:01;-0.70;15.70
26164;DHT22;13914;48.178;11.716;2024-01-30T07:22:29;-0.70;15.70
26164;DHT22;13914;48.178;11.716;2024-01-30T07:24:55;-0.70;15.80
26164;DHT22;13914;48.178;11.716;2024-01-30T07:27:21;-0.70;15.70
26164;DHT22;13914;48.178;11.716;2024-01-30T07:29:47;-0.70;15.70
26164;DHT22;13914;48.178;11.716;2024-01-30T07:32:12;-0.70;15.70
26164;DHT22;13914;48.178;11.716;2024-01-30T07:34:38;-0.70;15.80
26164;DHT22;13914;48.178;11.716;2024-01-30T07:37:04;-0.70;16.30
26164;DHT22;13914;48.178;11.716;2024-01-30T07:39:29;-0.70;15.70
26164;DHT22;13914;48.178;11.716;2024-01-30T07:41:55;-0.70;15.80
26164;DHT22;13914;48.178;11.716;2024-01-30T07:44:21;-0.70;15.70
26164;DHT22;13914;48.178;11.716;2024-01-30T07:46:47;-0.70;15.80
26164;DHT22;13914;48.178;11.716;2024-01-30T07:49:13;-0.70;15.80
26164;DHT22;13914;48.178;11.716;2024-01-30T07:51:39;-0.70;15.90
26164;DHT22;13914;48.178;11.716;2024-01-30T07:54:11;-0.70;15.90
26164;DHT22;13914;48.178;11.716;2024-01-30T07:56:37;-0.70;16.00
26164;DHT22;13914;48.178;11.716;2024-01-30T07:59:03;-0.70;16.00
26164;DHT22;13914;48.178;11.716;2024-01-30T08:01:29;-0.70;16.00
26164;DHT22;13914;48.178;11.716;2024-01-30T08:03:54;-0.60;16.10
26164;DHT22;13914;48.178;11.716;2024-01-30T08:06:20;-0.70;16.10
26164;DHT22;13914;48.178;11.716;2024-01-30T08:08:46;-0.60;16.20
26164;DHT22;13914;48.178;11.716;2024-01-30T08:11:12;-0.60;16.10
26164;DHT22;13914;48.178;11.716;2024-01-30T08:13:37;-0.50;16.20
26164;DHT22;13914;48.178;11.716;2024-01-30T08:16:03;-0.60;16.20
26164;DHT22;13914;48.178;11.716;2024-01-30T08:18:29;-0.50;16.30
26164;DHT22;13914;48.178;11.716;2024-01-30T08:20:55;-0.50;16.20
26164;DHT22;13914;48.178;11.716;2024-01-30T08:23:21;-0.40;16.40
26164;DHT22;13914;48.178;11.716;2024-01-30T08:25:47;-0.40;16.50
26164;DHT22;13914;48.178;11.716;2024-01-30T08:28:12;-0.40;16.70
26164;DHT22;13914;48.178;11.716;2024-01-30T08:30:38;-0.40;16.90
26164;DHT22;13914;48.178;11.716;2024-01-30T08:33:05;-0.30;17.20
26164;DHT22;13914;48.178;11.716;2024-01-30T08:35:30;-0.20;17.50
26164;DHT22;13914;48.178;11.716;2024-01-30T08:37:59;-0.20;17.90
26164;DHT22;13914;48.178;11.716;2024-01-30T08:40:25;-0.10;18.20
26164;DHT22;13914;48.178;11.716;2024-01-30T08:42:50;-0.10;18.40
26164;DHT22;13914;48.178;11.716;2024-01-30T08:45:16;0.00;18.50
26164;DHT22;13914;48.178;11.716;2024-01-30T08:47:42;0.10;18.70
26164;DHT22;13914;48.178;11.716;2024-01-30T08:50:07;0.20;18.70
26164;DHT22;13914;48.178;11.716;2024-01-30T08:52:33;0.30;18.80
26164;DHT22;13914;48.178;11.716;2024-01-30T08:54:59;0.40;18.50
26164;DHT22;13914;48.178;11.716;2024-01-30T08:57:25;0.50;18.30
26164;DHT22;13914;48.178;11.716;2024-01-30T08:59:54;0.60;18.40
26164;DHT22;13914;48.178;11.716;2024-01-30T09:02:19;0.70;18.60
26164;DHT22;13914;48.178;11.716;2024-01-30T09:04:46;0.80;18.80
26164;DHT22;13914;48.178;11.716;2024-01-30T09:07:11;1.00;19.20
26164;DHT22;13914;48.178;11.716;2024-01-30T09:09:39;1.10;19.50
26164;DHT22;13914;48.178;11.716;2024-01-30T09:12:06;1.20;19.80
26164;DHT22;13914;48.178;11.716;2024-01-30T09:14:35;1.40;20.00
26164;DHT22;13914;48.178;11.716;2024-01-30T09:17:01;1.50;20.20
26164;DHT22;13914;48.178;11.716;2024-01-30T09:19:28;1.60;20.40
26164;DHT22;13914;48.178;11.716;2024-01-30T09:21:54;1.80;20.70
26164;DHT22;13914;48.178;11.716;2024-01-30T09:24:19;1.90;20.70
26164;DHT22;13914;48.178;11.716;2024-01-30T09:26:45;2.10;20.90
26164;DHT22;13914;48.178;11.716;2024-01-30T09:29:11;2.20;20.90
26164;DHT22;13914;48.178;11.716;2024-01-30T09:31:36;2.30;20.70
26164;DHT22;13914;48.178;11.716;2024-01-30T09:34:02;2.50;20.50
26164;DHT22;13914;48.178;11.716;2024-01-30T09:36:28;2.60;20.60
26164;DHT22;13914;48.178;11.716;2024-01-30T09:38:54;2.80;20.80
26164;DHT22;13914;48.178;11.716;2024-01-30T09:41:19;2.90;20.80
26164;DHT22;13914;48.178;11.716;2024-01-30T09:43:47;3.00;20.60
26164;DHT22;13914;48.178;11.716;2024-01-30T09:46:16;3.20;20.40
26164;DHT22;13914;48.178;11.716;2024-01-30T09:48:42;3.30;20.40
26164;DHT22;13914;48.178;11.716;2024-01-30T09:51:09;3.40;20.30
26164;DHT22;13914;48.178;11.716;2024-01-30T09:53:35;3.60;19.80
26164;DHT22;13914;48.178;11.716;2024-01-30T09:56:02;3.70;19.90
26164;DHT22;13914;48.178;11.716;2024-01-30T09:58:28;3.80;20.00
26164;DHT22;13914;48.178;11.716;2024-01-30T10:00:53;4.00;19.30
26164;DHT22;13914;48.178;11.716;2024-01-30T10:03:19;4.10;19.10
26164;DHT22;13914;48.178;11.716;2024-01-30T10:05:54;4.20;18.30
26164;DHT22;13914;48.178;11.716;2024-01-30T10:08:20;4.40;18.50
26164;DHT22;13914;48.178;11.716;2024-01-30T10:10:49;4.50;17.90
26164;DHT22;13914;48.178;11.716;2024-01-30T10:13:15;4.60;17.70
26164;DHT22;13914;48.178;11.716;2024-01-30T10:15:41;4.80;17.80
26164;DHT22;13914;48.178;11.716;2024-01-30T10:18:10;4.90;17.90
26164;DHT22;13914;48.178;11.716;2024-01-30T10:20:36;5.00;17.50
26164;DHT22;13914;48.178;11.716;2024-01-30T10:23:02;5.20;17.60
26164;DHT22;13914;48.178;11.716;2024-01-30T10:25:30;5.30;17.10
26164;DHT22;13914;48.178;11.716;2024-01-30T10:27:57;5.40;16.80
26164;DHT22;13914;48.178;11.716;2024-01-30T10:30:23;5.50;16.50
26164;DHT22;13914;48.178;11.716;2024-01-30T10:32:49;5.60;16.50
26164;DHT22;13914;48.178;11.716;2024-01-30T10:35:16;5.80;16.40
26164;DHT22;13914;48.178;11.716;2024-01-30T10:37:47;5.90;16.20
26164;DHT22;13914;48.178;11.716;2024-01-30T10:40:13;6.00;16.20
26164;DHT22;13914;48.178;11.716;2024-01-30T10:42:42;6.10;15.80
26164;DHT22;13914;48.178;11.716;2024-01-30T10:45:09;6.20;15.60
26164;DHT22;13914;48.178;11.716;2024-01-30T10:47:52;6.30;15.30
26164;DHT22;13914;48.178;11.716;2024-01-30T10:50:21;6.40;15.00
26164;DHT22;13914;48.178;11.716;2024-01-30T10:52:49;6.50;14.70
26164;DHT22;13914;48.178;11.716;2024-01-30T10:55:15;6.60;15.00
26164;DHT22;13914;48.178;11.716;2024-01-30T10:57:41;6.80;15.10
26164;DHT22;13914;48.178;11.716;2024-01-30T11:00:08;6.90;14.80
26164;DHT22;13914;48.178;11.716;2024-01-30T11:02:38;7.00;15.00
26164;DHT22;13914;48.178;11.716;2024-01-30T11:05:05;7.10;14.90
26164;DHT22;13914;48.178;11.716;2024-01-30T11:07:31;7.10;14.70
26164;DHT22;13914;48.178;11.716;2024-01-30T11:12:23;7.30;14.40
26164;DHT22;13914;48.178;11.716;2024-01-30T11:14:50;7.40;14.70
26164;DHT22;13914;48.178;11.716;2024-01-30T11:17:28;7.50;13.50
26164;DHT22;13914;48.178;11.716;2024-01-30T11:19:55;7.60;13.00
26164;DHT22;13914;48.178;11.716;2024-01-30T11:22:24;7.60;12.40
26164;DHT22;13914;48.178;11.716;2024-01-30T11:24:50;7.70;12.10
26164;DHT22;13914;48.178;11.716;2024-01-30T11:27:15;7.80;12.10
26164;DHT22;13914;48.178;11.716;2024-01-30T11:29:42;7.80;12.10
26164;DHT22;13914;48.178;11.716;2024-01-30T11:32:07;7.90;12.30
26164;DHT22;13914;48.178;11.716;2024-01-30T11:34:33;8.00;12.50
26164;DHT22;13914;48.178;11.716;2024-01-30T11:37:06;8.00;12.30
26164;DHT22;13914;48.178;11.716;2024-01-30T11:39:34;8.10;12.30
26164;DHT22;13914;48.178;11.716;2024-01-30T11:42:01;8.10;12.00
26164;DHT22;13914;48.178;11.716;2024-01-30T11:44:30;8.30;11.80
26164;DHT22;13914;48.178;11.716;2024-01-30T11:46:55;8.30;11.90
26164;DHT22;13914;48.178;11.716;2024-01-30T11:49:21;8.30;11.40
26164;DHT22;13914;48.178;11.716;2024-01-30T11:51:48;8.40;11.70
26164;DHT22;13914;48.178;11.716;2024-01-30T11:54:15;8.50;10.80
26164;DHT22;13914;48.178;11.716;2024-01-30T11:56:41;8.60;10.80
26164;DHT22;13914;48.178;11.716;2024-01-30T11:59:07;8.60;10.80
26164;DHT22;13914;48.178;11.716;2024-01-30T12:01:33;8.70;10.70
26164;DHT22;13914;48.178;11.716;2024-01-30T12:03:59;8.80;11.50
26164;DHT22;13914;48.178;11.716;2024-01-30T12:06:25;8.90;12.00
26164;DHT22;13914;48.178;11.716;2024-01-30T12:09:01;8.90;11.90
26164;DHT22;13914;48.178;11.716;2024-01-30T12:11:29;9.00;12.10
26164;DHT22;13914;48.178;11.716;2024-01-30T12:13:55;9.10;11.80
26164;DHT22;13914;48.178;11.716;2024-01-30T12:16:21;9.10;11.90
26164;DHT22;13914;48.178;11.716;2024-01-30T12:18:47;9.20;12.30
26164;DHT22;13914;48.178;11.716;2024-01-30T12:21:16;9.30;11.90
26164;DHT22;13914;48.178;11.716;2024-01-30T12:23:42;9.30;12.20
26164;DHT22;13914;48.178;11.716;2024-01-30T12:26:08;9.40;12.70
26164;DHT22;13914;48.178;11.716;2024-01-30T12:28:33;9.50;13.20
26164;DHT22;13914;48.178;11.716;2024-01-30T12:31:02;9.50;13.80
26164;DHT22;13914;48.178;11.716;2024-01-30T12:33:29;9.60;13.30
26164;DHT22;13914;48.178;11.716;2024-01-30T12:35:55;9.70;11.80
26164;DHT22;13914;48.178;11.716;2024-01-30T12:38:22;9.70;11.60
26164;DHT22;13914;48.178;11.716;2024-01-30T12:40:49;9.80;11.40
26164;DHT22;13914;48.178;11.716;2024-01-30T12:43:15;9.80;10.90
26164;DHT22;13914;48.178;11.716;2024-01-30T12:45:41;10.00;10.60
26164;DHT22;13914;48.178;11.716;2024-01-30T12:48:08;10.00;10.40
26164;DHT22;13914;48.178;11.716;2024-01-30T12:50:34;10.10;10.70
26164;DHT22;13914;48.178;11.716;2024-01-30T12:52:59;10.10;11.30
26164;DHT22;13914;48.178;11.716;2024-01-30T12:55:25;10.20;11.30
26164;DHT22;13914;48.178;11.716;2024-01-30T12:57:54;10.20;11.20
26164;DHT22;13914;48.178;11.716;2024-01-30T13:00:20;10.30;10.80
26164;DHT22;13914;48.178;11.716;2024-01-30T13:02:47;10.40;11.00
26164;DHT22;13914;48.178;11.716;2024-01-30T13:05:12;10.50;11.50
26164;DHT22;13914;48.178;11.716;2024-01-30T13:07:38;10.50;11.20
26164;DHT22;13914;48.178;11.716;2024-01-30T13:10:04;10.60;11.70
26164;DHT22;13914;48.178;11.716;2024-01-30T13:12:30;10.70;12.00
26164;DHT22;13914;48.178;11.716;2024-01-30T13:14:57;10.70;12.20
26164;DHT22;13914;48.178;11.716;2024-01-30T13:17:24;10.80;12.20
26164;DHT22;13914;48.178;11.716;2024-01-30T13:19:49;10.80;12.30
26164;DHT22;13914;48.178;11.716;2024-01-30T13:22:15;10.90;12.10
26164;DHT22;13914;48.178;11.716;2024-01-30T13:24:41;11.00;12.20
26164;DHT22;13914;48.178;11.716;2024-01-30T13:27:07;11.10;12.20
26164;DHT22;13914;48.178;11.716;2024-01-30T13:29:34;11.10;13.10
26164;DHT22;13914;48.178;11.716;2024-01-30T13:31:59;11.20;12.80
26164;DHT22;13914;48.178;11.716;2024-01-30T13:34:25;11.20;13.00
26164;DHT22;13914;48.178;11.716;2024-01-30T13:36:50;11.30;13.20
26164;DHT22;13914;48.178;11.716;2024-01-30T13:39:17;11.40;13.00
26164;DHT22;13914;48.178;11.716;2024-01-30T13:41:42;11.40;13.30
26164;DHT22;13914;48.178;11.716;2024-01-30T13:44:08;11.50;13.10
26164;DHT22;13914;48.178;11.716;2024-01-30T13:46:34;11.60;13.30
26164;DHT22;13914;48.178;11.716;2024-01-30T13:49:01;11.60;12.90
26164;DHT22;13914;48.178;11.716;2024-01-30T13:51:27;11.70;12.70
26164;DHT22;13914;48.178;11.716;2024-01-30T13:53:54;11.70;12.10
26164;DHT22;13914;48.178;11.716;2024-01-30T13:56:20;11.80;12.40
26164;DHT22;13914;48.178;11.716;2024-01-30T13:58:48;11.80;12.50
26164;DHT22;13914;48.178;11.716;2024-01-30T14:01:14;11.90;12.60
26164;DHT22;13914;48.178;11.716;2024-01-30T14:03:40;12.00;12.70
26164;DHT22;13914;48.178;11.716;2024-01-30T14:06:05;12.00;12.80
26164;DHT22;13914;48.178;11.716;2024-01-30T14:08:31;12.10;12.70
26164;DHT22;13914;48.178;11.716;2024-01-30T14:10:57;12.10;12.70
26164;DHT22;13914;48.178;11.716;2024-01-30T14:13:23;12.10;12.70
26164;DHT22;13914;48.178;11.716;2024-01-30T14:15:53;12.20;12.90
26164;DHT22;13914;48.178;11.716;2024-01-30T14:18:19;12.20;12.70
26164;DHT22;13914;48.178;11.716;2024-01-30T14:20:45;12.30;13.00
26164;DHT22;13914;48.178;11.716;2024-01-30T14:23:10;12.30;12.90
26164;DHT22;13914;48.178;11.716;2024-01-30T14:25:36;12.30;12.80
26164;DHT22;13914;48.178;11.716;2024-01-30T14:28:02;12.40;12.80
26164;DHT22;13914;48.178;11.716;2024-01-30T14:30:27;12.40;13.10
26164;DHT22;13914;48.178;11.716;2024-01-30T14:32:53;12.40;13.10
26164;DHT22;13914;48.178;11.716;2024-01-30T14:35:19;12.40;13.30
26164;DHT22;13914;48.178;11.716;2024-01-30T14:37:45;12.40;13.00
26164;DHT22;13914;48.178;11.716;2024-01-30T14:40:11;12.50;13.40
26164;DHT22;13914;48.178;11.716;2024-01-30T14:42:36;12.50;13.30
26164;DHT22;13914;48.178;11.716;2024-01-30T14:45:03;12.50;13.10
26164;DHT22;13914;48.178;11.716;2024-01-30T14:47:29;12.50;13.20
26164;DHT22;13914;48.178;11.716;2024-01-30T14:49:56;12.50;13.10
26164;DHT22;13914;48.178;11.716;2024-01-30T14:52:22;12.50;13.10
26164;DHT22;13914;48.178;11.716;2024-01-30T14:54:48;12.50;13.00
26164;DHT22;13914;48.178;11.716;2024-01-30T14:57:13;12.50;13.30
26164;DHT22;13914;48.178;11.716;2024-01-30T14:59:39;12.50;13.00
26164;DHT22;13914;48.178;11.716;2024-01-30T15:02:05;12.50;12.90
26164;DHT22;13914;48.178;11.716;2024-01-30T15:04:31;12.50;12.80
26164;DHT22;13914;48.178;11.716;2024-01-30T15:06:57;12.40;12.70
26164;DHT22;13914;48.178;11.716;2024-01-30T15:09:23;12.50;12.80
26164;DHT22;13914;48.178;11.716;2024-01-30T15:11:49;12.40;12.70
26164;DHT22;13914;48.178;11.716;2024-01-30T15:14:15;12.40;12.70
26164;DHT22;13914;48.178;11.716;2024-01-30T15:16:41;12.30;12.80
26164;DHT22;13914;48.178;11.716;2024-01-30T15:19:07;12.30;12.70
26164;DHT22;13914;48.178;11.716;2024-01-30T15:21:33;12.30;12.60